Aviation Digital Data Service (ADDS)

Output produced by TAFs form (2141 UTC 16 August 2017)
found at http://www.aviationweather.gov/adds/tafs/
 
Forecast for: RODN (KADENA (USAFB-NA, JP)
Text: TAF RODN 161600Z 1616/1722 22009KT 9999 FEW020 QNH2983INS TX33/1704Z TN29/1616Z
Forecast period: 1600 UTC 16 August 2017 to 2200 UTC 17 August 2017
Forecast type: FROM: standard forecast or significant change
Winds: from the SW (220 degrees) at 10 MPH (9 knots; 4.7 m/s)
Visibility: 6 or more miles (10+ km)
Clouds: few clouds at 2000 feet AGL
Weather: no significant weather forecast for this period

Forecast for: ROTM (FUTENMA(US-MCAS), JP)
Text: TAF ROTM 1621/1721 VRB06KT 9999 SCT020 QNH2984INS T28/1621Z T34/1705Z
Forecast period: 2100 UTC 16 August 2017 to 2100 UTC 17 August 2017
Forecast type: FROM: standard forecast or significant change
Winds: variable direction winds at 7 MPH (6 knots; 3.1 m/s)
Visibility: 6 or more miles (10+ km)
Clouds: scattered clouds at 2000 feet AGL
Weather: no significant weather forecast for this period

Forecast for: ROAH (NAHA (CIV/JASDF), JP)
Text: TAF ROAH 161705Z 1618/1800 25005KT 9999 FEW015
Forecast period: 1800 UTC 16 August 2017 to 0000 UTC 18 August 2017
Forecast type: FROM: standard forecast or significant change
Winds: from the WSW (250 degrees) at 6 MPH (5 knots; 2.6 m/s)
Visibility: 6 or more miles (10+ km)
Clouds: few clouds at 1500 feet AGL
Weather: no significant weather forecast for this period